createdAt,value
2018-06-17T00:00:32.373Z,17.40
2018-06-17T00:03:01.078Z,17.40
2018-06-17T00:05:28.964Z,17.40
2018-06-17T00:10:24.903Z,17.40
2018-06-17T00:12:52.767Z,17.40
2018-06-17T00:15:20.763Z,17.30
2018-06-17T00:17:48.660Z,17.20
2018-06-17T00:20:16.574Z,17.10
2018-06-17T00:22:44.425Z,17.10
2018-06-17T00:25:12.637Z,17.10
2018-06-17T00:30:08.289Z,17.00
2018-06-17T00:32:36.163Z,17.00
2018-06-17T00:35:04.854Z,17.00
2018-06-17T00:37:32.725Z,17.10
2018-06-17T00:40:00.591Z,17.00
2018-06-17T00:42:28.629Z,17.00
2018-06-17T00:44:56.507Z,16.90
2018-06-17T00:47:24.509Z,16.80
2018-06-17T00:49:52.374Z,16.70
2018-06-17T00:52:20.395Z,16.70
2018-06-17T00:54:48.276Z,16.70
2018-06-17T00:59:49.621Z,16.80
2018-06-17T01:02:17.467Z,16.90
2018-06-17T01:04:45.306Z,16.90
2018-06-17T01:07:13.695Z,17.00
2018-06-17T01:09:41.566Z,17.00
2018-06-17T01:12:09.435Z,17.00
2018-06-17T01:14:37.333Z,17.00
2018-06-17T01:17:05.185Z,17.00
2018-06-17T01:19:33.082Z,17.00
2018-06-17T01:24:29.105Z,16.90
2018-06-17T01:26:56.968Z,17.00
2018-06-17T01:31:52.539Z,17.00
2018-06-17T01:34:20.437Z,17.00
2018-06-17T01:36:48.356Z,17.10
2018-06-17T01:41:43.919Z,17.10
2018-06-17T01:44:11.789Z,17.00
2018-06-17T01:46:39.646Z,17.00
2018-06-17T01:49:07.484Z,17.00
2018-06-17T01:54:03.155Z,17.10
2018-06-17T01:56:31.057Z,17.10
2018-06-17T01:58:59.535Z,17.10
2018-06-17T02:01:27.463Z,17.10
2018-06-17T02:04:00.995Z,17.10
2018-06-17T02:06:34.483Z,17.10
2018-06-17T02:09:08.141Z,17.00
2018-06-17T02:14:13.476Z,16.80
2018-06-17T02:16:42.282Z,16.70
2018-06-17T02:21:38.412Z,16.80
2018-06-17T02:26:35.460Z,16.80
2018-06-17T02:29:03.310Z,16.90
2018-06-17T02:31:31.396Z,16.90
2018-06-17T02:33:59.298Z,16.90
2018-06-17T02:38:54.983Z,16.80
2018-06-17T02:41:23.011Z,16.90
2018-06-17T02:43:50.876Z,16.90
2018-06-17T02:48:58.679Z,16.80
2018-06-17T02:52:31.859Z,16.80
2018-06-17T02:54:59.752Z,16.80
2018-06-17T02:57:27.647Z,16.70
2018-06-17T02:59:55.478Z,16.70
2018-06-17T03:04:51.054Z,16.80
2018-06-17T03:07:19.544Z,16.80
2018-06-17T03:09:47.502Z,16.70
2018-06-17T03:12:15.371Z,16.70
2018-06-17T03:14:43.242Z,16.70
2018-06-17T03:17:11.721Z,16.70
2018-06-17T03:19:39.579Z,16.70
2018-06-17T03:22:07.532Z,16.70
2018-06-17T03:24:40.993Z,16.70
2018-06-17T03:27:14.458Z,16.70
2018-06-17T03:29:48.072Z,16.70
2018-06-17T03:32:23.861Z,16.70
2018-06-17T03:37:25.103Z,16.70
2018-06-17T03:39:52.942Z,16.80
2018-06-17T03:42:22.575Z,16.80
2018-06-17T03:44:50.415Z,16.80
2018-06-17T03:47:18.267Z,16.90
2018-06-17T03:49:46.146Z,17.00
2018-06-17T03:52:14.002Z,17.00
2018-06-17T03:54:41.970Z,17.00
2018-06-17T03:57:09.818Z,17.00
2018-06-17T03:59:37.672Z,17.00
2018-06-17T04:04:38.878Z,17.20
2018-06-17T04:07:07.449Z,17.20
2018-06-17T04:09:35.280Z,17.30
2018-06-17T04:14:31.626Z,17.40
2018-06-17T04:17:04.543Z,17.50
2018-06-17T04:19:32.417Z,17.50
2018-06-17T04:22:00.315Z,17.60
2018-06-17T04:24:28.159Z,17.50
2018-06-17T04:26:56.012Z,17.50
2018-06-17T04:29:24.545Z,17.60
2018-06-17T04:31:52.508Z,17.70
2018-06-17T04:34:20.367Z,17.70
2018-06-17T04:36:48.212Z,17.50
2018-06-17T04:39:16.090Z,17.60
2018-06-17T04:41:43.955Z,17.60
2018-06-17T04:44:11.824Z,17.80
2018-06-17T04:46:39.674Z,17.90
2018-06-17T04:49:07.542Z,17.80
2018-06-17T04:51:36.100Z,17.80
2018-06-17T04:54:03.954Z,17.90
2018-06-17T04:56:31.857Z,17.90
2018-06-17T04:58:59.706Z,17.90
2018-06-17T05:01:28.531Z,17.90
2018-06-17T05:03:56.590Z,18.00
2018-06-17T05:06:24.433Z,18.10
2018-06-17T05:08:52.262Z,18.10
2018-06-17T05:11:20.381Z,18.20
2018-06-17T05:13:48.275Z,18.10
2018-06-17T05:16:16.685Z,18.30
2018-06-17T05:21:12.812Z,18.40
2018-06-17T05:23:40.688Z,18.50
2018-06-17T05:26:08.558Z,18.60
2018-06-17T05:28:36.574Z,18.70
2018-06-17T05:31:04.492Z,18.80
2018-06-17T05:33:32.456Z,18.90
2018-06-17T05:36:00.336Z,18.90
2018-06-17T05:38:28.180Z,18.90
2018-06-17T05:40:56.667Z,19.00
2018-06-17T05:45:52.253Z,19.00
2018-06-17T05:48:20.126Z,19.20
2018-06-17T05:50:47.993Z,19.30
2018-06-17T05:53:15.885Z,19.30
2018-06-17T05:55:43.854Z,19.40
2018-06-17T05:58:11.613Z,19.50
2018-06-17T06:00:39.845Z,19.50
2018-06-17T06:05:35.585Z,19.70
2018-06-17T06:08:03.466Z,19.90
2018-06-17T06:10:31.311Z,19.90
2018-06-17T06:12:59.186Z,20.10
2018-06-17T06:15:27.065Z,20.20
2018-06-17T06:17:55.003Z,20.30
2018-06-17T06:22:51.136Z,20.30
2018-06-17T06:25:19.077Z,20.40
2018-06-17T06:27:47.016Z,20.60
2018-06-17T06:30:15.487Z,20.60
2018-06-17T06:32:43.375Z,20.70
2018-06-17T06:35:11.335Z,20.70
2018-06-17T06:37:39.236Z,20.70
2018-06-17T06:40:07.214Z,20.90
2018-06-17T06:42:35.624Z,21.10
2018-06-17T06:52:26.802Z,21.20
2018-06-17T06:54:55.301Z,21.10
2018-06-17T06:57:23.231Z,21.30
2018-06-17T06:59:51.148Z,21.50
2018-06-17T07:03:29.664Z,21.70
2018-06-17T07:06:08.932Z,21.60
2018-06-17T07:11:10.262Z,21.70
2018-06-17T07:13:38.138Z,21.70
2018-06-17T07:18:43.976Z,22.10
2018-06-17T07:21:11.819Z,22.10
2018-06-17T07:26:31.921Z,22.30
2018-06-17T07:34:01.963Z,22.40
2018-06-17T07:36:31.155Z,22.50
2018-06-17T07:38:59.549Z,22.70
2018-06-17T07:43:55.458Z,22.90
2018-06-17T07:46:23.355Z,22.90
2018-06-17T07:52:02.900Z,23.00
2018-06-17T07:54:30.794Z,23.10
2018-06-17T07:59:27.107Z,23.00
2018-06-17T08:06:50.535Z,23.30
2018-06-17T08:09:18.439Z,23.30
2018-06-17T08:11:46.856Z,23.20
2018-06-17T08:16:42.468Z,23.20
2018-06-17T08:19:10.351Z,23.20
2018-06-17T08:21:38.206Z,23.10
2018-06-17T08:24:06.055Z,23.20
2018-06-17T08:26:33.898Z,23.20
2018-06-17T08:33:58.786Z,23.30
2018-06-17T08:38:54.384Z,23.40
2018-06-17T08:41:22.323Z,23.40
2018-06-17T08:43:50.762Z,23.40
2018-06-17T08:46:18.622Z,23.40
2018-06-17T08:48:46.503Z,23.40
2018-06-17T08:51:14.382Z,23.40
2018-06-17T08:53:42.255Z,23.50
2018-06-17T08:56:10.335Z,23.60
2018-06-17T09:01:06.450Z,23.70
2018-06-17T09:06:02.690Z,23.70
2018-06-17T09:08:30.681Z,23.80
2018-06-17T09:10:59.057Z,23.80
2018-06-17T09:13:27.324Z,23.80
2018-06-17T09:15:55.619Z,23.90
2018-06-17T09:18:23.775Z,23.90
2018-06-17T09:20:52.473Z,24.00
2018-06-17T09:23:20.636Z,23.90
2018-06-17T09:25:48.520Z,23.80
2018-06-17T09:28:16.350Z,23.90
2018-06-17T09:30:44.269Z,23.80
2018-06-17T09:33:12.406Z,23.90
2018-06-17T09:38:08.044Z,23.80
2018-06-17T09:43:04.020Z,23.70
2018-06-17T09:45:31.878Z,23.70
2018-06-17T09:50:27.627Z,23.60
2018-06-17T09:52:55.527Z,23.60
2018-06-17T09:55:24.363Z,23.50
2018-06-17T09:57:52.227Z,23.60
2018-06-17T10:05:19.380Z,23.70
2018-06-17T10:07:47.775Z,23.70
2018-06-17T10:15:49.421Z,23.70
2018-06-17T10:18:18.158Z,23.70
2018-06-17T10:20:46.144Z,23.80
2018-06-17T10:25:41.739Z,23.90
2018-06-17T10:28:10.336Z,24.00
2018-06-17T10:30:39.751Z,24.10
2018-06-17T10:33:09.213Z,24.20
2018-06-17T10:35:37.765Z,24.30
2018-06-17T10:38:05.851Z,24.30
2018-06-17T10:40:33.747Z,24.50
2018-06-17T10:43:01.671Z,24.50
2018-06-17T10:45:29.552Z,24.50
2018-06-17T10:47:58.162Z,24.50
2018-06-17T10:52:53.833Z,24.70
2018-06-17T10:57:49.985Z,24.70
2018-06-17T11:00:18.808Z,24.80
2018-06-17T11:02:46.710Z,24.80
2018-06-17T11:05:14.650Z,24.70
2018-06-17T11:07:42.532Z,24.80
2018-06-17T11:10:10.434Z,24.80
2018-06-17T11:15:06.086Z,24.90
2018-06-17T11:17:33.947Z,25.00
2018-06-17T11:20:02.362Z,25.00
2018-06-17T11:22:30.234Z,25.10
2018-06-17T11:24:58.264Z,25.00
2018-06-17T11:27:27.101Z,25.10
2018-06-17T11:29:54.981Z,25.20
2018-06-17T11:34:51.986Z,25.20
2018-06-17T11:37:20.264Z,25.30
2018-06-17T11:42:17.958Z,25.30
2018-06-17T11:44:46.094Z,25.40
2018-06-17T11:47:14.003Z,25.50
2018-06-17T11:49:41.884Z,25.60
2018-06-17T11:52:09.828Z,25.60
2018-06-17T11:54:38.365Z,25.70
2018-06-17T11:57:07.292Z,25.80
2018-06-17T11:59:35.873Z,25.90
2018-06-17T12:02:03.871Z,25.80
2018-06-17T12:04:32.020Z,25.80
2018-06-17T12:06:59.993Z,25.70
2018-06-17T12:09:28.410Z,25.60
2018-06-17T12:11:56.435Z,25.70
2018-06-17T12:16:52.051Z,25.70
2018-06-17T12:19:20.726Z,25.80
2018-06-17T12:21:49.330Z,25.80
2018-06-17T12:31:40.485Z,25.90
2018-06-17T12:34:09.292Z,25.90
2018-06-17T12:36:38.298Z,25.90
2018-06-17T12:39:08.714Z,26.10
2018-06-17T12:44:04.554Z,26.30
2018-06-17T12:46:32.949Z,26.20
2018-06-17T12:49:01.295Z,26.10
2018-06-17T12:53:56.906Z,26.30
2018-06-17T12:56:24.791Z,26.30
2018-06-17T13:03:49.170Z,26.50
2018-06-17T13:06:17.086Z,26.60
2018-06-17T13:11:13.010Z,26.60
2018-06-17T13:13:41.518Z,26.60
2018-06-17T13:16:09.392Z,26.60
2018-06-17T13:18:37.801Z,26.60
2018-06-17T13:21:06.143Z,26.70
2018-06-17T13:23:34.012Z,26.70
2018-06-17T13:26:02.055Z,26.60
2018-06-17T13:28:29.954Z,26.50
2018-06-17T13:30:57.895Z,26.60
2018-06-17T13:33:25.803Z,26.60
2018-06-17T13:35:54.103Z,26.70
2018-06-17T13:38:22.753Z,26.80
2018-06-17T13:40:50.694Z,26.90
2018-06-17T13:43:18.710Z,26.90
2018-06-17T13:45:46.628Z,26.90
2018-06-17T13:53:11.413Z,26.80
2018-06-17T13:55:39.977Z,26.90
2018-06-17T13:58:08.093Z,26.80
2018-06-17T14:00:36.099Z,26.70
2018-06-17T14:05:32.548Z,26.50
2018-06-17T14:08:00.448Z,26.50
2018-06-17T14:10:28.353Z,26.60
2018-06-17T14:12:57.090Z,26.60
2018-06-17T14:15:25.008Z,26.60
2018-06-17T14:17:53.123Z,26.70
2018-06-17T14:22:48.795Z,26.60
2018-06-17T14:25:17.357Z,26.80
2018-06-17T14:27:45.322Z,27.20
2018-06-17T14:30:13.214Z,27.50
2018-06-17T14:32:41.115Z,27.60
2018-06-17T14:40:05.272Z,27.20
2018-06-17T14:42:38.627Z,27.20
2018-06-17T14:45:12.275Z,27.20
2018-06-17T14:56:17.484Z,27.00
2018-06-17T14:58:45.329Z,27.00
2018-06-17T15:01:13.236Z,27.00
2018-06-17T15:03:41.164Z,27.10
2018-06-17T15:08:36.818Z,27.20
2018-06-17T15:11:04.853Z,27.20
2018-06-17T15:13:33.352Z,27.10
2018-06-17T15:16:01.481Z,27.00
2018-06-17T15:18:29.370Z,27.00
2018-06-17T15:20:57.272Z,27.00
2018-06-17T15:23:25.174Z,27.00
2018-06-17T15:25:53.267Z,26.90
2018-06-17T15:30:48.929Z,26.50
2018-06-17T15:33:22.485Z,26.50
2018-06-17T15:35:55.957Z,26.60
2018-06-17T15:38:30.545Z,26.60
2018-06-17T15:45:59.834Z,26.90
2018-06-17T15:48:27.825Z,27.00
2018-06-17T15:50:55.812Z,27.00
2018-06-17T15:53:23.662Z,27.00
2018-06-17T15:55:51.650Z,27.00
2018-06-17T15:58:19.491Z,26.90
2018-06-17T16:03:15.225Z,26.70
2018-06-17T16:08:10.903Z,26.50
2018-06-17T16:10:38.899Z,26.50
2018-06-17T16:13:13.247Z,26.30
2018-06-17T16:18:20.280Z,26.50
2018-06-17T16:20:53.764Z,26.60
2018-06-17T16:28:18.219Z,26.40
2018-06-17T16:35:41.648Z,26.10
2018-06-17T16:38:09.535Z,26.20
2018-06-17T16:40:37.389Z,26.20
2018-06-17T16:43:05.352Z,26.40
2018-06-17T16:45:33.671Z,26.50
2018-06-17T16:50:29.327Z,26.50
2018-06-17T16:54:00.650Z,26.50
2018-06-17T16:59:07.876Z,26.20
2018-06-17T17:01:35.798Z,26.20
2018-06-17T17:04:03.732Z,26.20
2018-06-17T17:06:32.093Z,26.20
2018-06-17T17:08:59.990Z,26.10
2018-06-17T17:11:27.911Z,26.20
2018-06-17T17:16:23.523Z,26.10
2018-06-17T17:18:51.437Z,26.10
2018-06-17T17:21:19.406Z,26.20
2018-06-17T17:23:47.665Z,26.20
2018-06-17T17:28:43.352Z,26.20
2018-06-17T17:31:11.427Z,26.20
2018-06-17T17:33:45.859Z,26.20
2018-06-17T17:36:20.226Z,26.20
2018-06-17T17:38:54.256Z,26.30
2018-06-17T17:41:22.134Z,26.30
2018-06-17T17:43:50.153Z,26.20
2018-06-17T17:48:51.652Z,26.10
2018-06-17T17:51:19.674Z,26.10
2018-06-17T17:58:43.855Z,25.80
2018-06-17T18:01:11.766Z,25.60
2018-06-17T18:03:40.320Z,25.50
2018-06-17T18:06:08.247Z,25.30
2018-06-17T18:08:36.144Z,25.20
2018-06-17T18:11:04.087Z,25.10
2018-06-17T18:13:32.786Z,25.10
2018-06-17T18:16:00.675Z,25.00
2018-06-17T18:18:28.569Z,24.90
2018-06-17T18:20:56.627Z,24.80
2018-06-17T18:23:24.691Z,24.70
2018-06-17T18:25:58.297Z,24.60
2018-06-17T18:28:32.519Z,24.50
2018-06-17T18:31:02.349Z,24.40
2018-06-17T18:33:38.007Z,24.20
2018-06-17T18:38:35.683Z,23.90
2018-06-17T18:43:31.332Z,23.50
2018-06-17T18:48:27.654Z,23.40
2018-06-17T18:53:24.818Z,23.50
2018-06-17T19:10:52.041Z,23.20
2018-06-17T19:13:26.431Z,23.20
2018-06-17T19:16:00.883Z,23.00
2018-06-17T19:18:29.445Z,23.00
2018-06-17T19:20:57.924Z,23.00
2018-06-17T19:23:25.851Z,23.00
2018-06-17T19:25:54.681Z,23.00
2018-06-17T19:28:22.560Z,22.90
2018-06-17T19:30:50.642Z,22.80
2018-06-17T19:33:18.971Z,22.80
2018-06-17T19:35:46.900Z,22.80
2018-06-17T19:38:15.111Z,22.70
2018-06-17T19:43:11.288Z,22.60
2018-06-17T19:48:06.882Z,22.50
2018-06-17T19:50:41.226Z,22.40
2018-06-17T19:53:17.151Z,22.40
2018-06-17T19:55:52.468Z,22.40
2018-06-17T19:58:28.258Z,22.40
2018-06-17T20:00:58.807Z,22.40
2018-06-17T20:03:26.724Z,22.40
2018-06-17T20:05:54.948Z,22.40
2018-06-17T20:08:22.874Z,22.40
2018-06-17T20:10:50.746Z,22.30
2018-06-17T20:15:46.812Z,22.20
2018-06-17T20:20:43.484Z,22.30
2018-06-17T20:23:11.410Z,22.20
2018-06-17T20:25:39.319Z,22.10
2018-06-17T20:28:07.491Z,22.10
2018-06-17T20:33:09.354Z,22.00
2018-06-17T20:36:41.226Z,22.00
2018-06-17T20:41:49.359Z,21.60
2018-06-17T20:44:17.269Z,21.50
2018-06-17T20:46:45.702Z,21.50
2018-06-17T20:56:38.016Z,21.50
2018-06-17T20:59:07.089Z,21.50
2018-06-17T21:01:35.008Z,21.50
2018-06-17T21:04:02.905Z,21.60
2018-06-17T21:08:58.551Z,21.60
2018-06-17T21:13:54.199Z,21.60
2018-06-17T21:16:22.122Z,21.60
2018-06-17T21:18:55.659Z,21.50
2018-06-17T21:21:29.980Z,21.40
2018-06-17T21:24:03.581Z,21.40
2018-06-17T21:29:05.755Z,21.30
2018-06-17T21:31:33.646Z,21.30
2018-06-17T21:34:01.486Z,21.30
2018-06-17T21:41:24.997Z,21.30
2018-06-17T21:46:21.118Z,21.50
2018-06-17T21:48:49.108Z,21.50
2018-06-17T21:51:17.051Z,21.50
2018-06-17T21:53:44.956Z,21.40
2018-06-17T21:56:12.861Z,21.30
2018-06-17T21:58:46.766Z,21.20
2018-06-17T22:01:14.971Z,21.20
2018-06-17T22:06:11.143Z,21.00
2018-06-17T22:08:44.739Z,21.00
2018-06-17T22:13:52.054Z,20.90
2018-06-17T22:16:26.456Z,20.90
2018-06-17T22:21:22.276Z,20.70
2018-06-17T22:26:18.970Z,20.60
2018-06-17T22:28:47.454Z,20.50
2018-06-17T22:33:44.131Z,20.50
2018-06-17T22:36:12.381Z,20.50
2018-06-17T22:38:40.284Z,20.60
2018-06-17T22:41:08.150Z,20.60
2018-06-17T22:43:36.003Z,20.50
2018-06-17T22:46:03.885Z,20.50
2018-06-17T22:48:31.863Z,20.50
2018-06-17T22:50:59.726Z,20.50
2018-06-17T22:53:39.154Z,20.60
2018-06-17T22:56:11.566Z,20.60
2018-06-17T23:03:51.905Z,20.50
2018-06-17T23:06:26.420Z,20.50
2018-06-17T23:09:31.710Z,20.50
2018-06-17T23:12:00.229Z,20.50
2018-06-17T23:16:56.454Z,20.40
2018-06-17T23:21:52.223Z,20.50
2018-06-17T23:26:48.160Z,20.40
2018-06-17T23:29:16.327Z,20.50
2018-06-17T23:39:09.292Z,20.40
2018-06-17T23:44:04.946Z,20.40
2018-06-17T23:51:48.416Z,20.40
2018-06-17T23:54:22.197Z,20.40
2018-06-17T23:56:50.564Z,20.40
2018-06-17T23:59:18.444Z,20.40
